Terminal Aerodrome Forecast
Issued by NWS

Home | Current Version | Previous Version | Text Only | Print | Product List | Glossary On
Versions: 1 2 3 4 5 6 7 8 9 10 11 12 13 14 15 16 17 18 19
000
FTAK31 PAJN 250523
TAFAWG
TAF
PAWG 250523Z 2506/2606 VRB04KT P6SM -RA SCT015 OVC030
     FM251000 VRB04KT 4SM -RASN OVC025
     FM252000 12007KT P6SM -SHRA OVC040
      AMD NOT SKED 2506/2515=

USA.gov is the U.S. government's official web portal to all federal, state and local government web resources and services.